LTFE/BJV METAR and TAF weather

Enter ICAO airport designator
Station Type Date Time Source
LTFE METAR 2018/12/13 22:50 UTC NOAA

LTFE 132250Z 11008KT 9999 SCT030 BKN090 12/09 Q1019 NOSIG


Station Type Date Time Source
LTFE Decoded METAR 2018/12/13 22:50 UTC NOAA

Bodrum Milas Airport, Turkey (LTFE) 37-14-53N 027-40-55E
Dec 13, 2018 - 05:50 PM EST / 2018.12.13 2250 UTC
Wind: from the ESE (110 degrees) at 9 MPH (8 KT):0
Visibility: greater than 7 mile(s):0
Sky conditions: mostly cloudy
Temperature: 53 F (12 C)
Dew Point: 48 F (9 C)
Relative Humidity: 81%
Pressure (altimeter): 30.09 in. Hg (1019 hPa)
ob: LTFE 132250Z 11008KT 9999 SCT030 BKN090 12/09 Q1019 NOSIG
cycle: 23

Station Type Date Time Source
LTFE TAF 2018/12/13 18:24 UTC NOAA

TAF
AMD TAF
AMD LTFE 131818Z 1318/1418 11009KT 9999 -SHRA SCT030 BKN090


Example: see airport list